Terminal Aerodrome Forecast
Issued by NWS

Home | Current Version | Previous Version | Text Only | Print | Product List | Glossary On
Versions: 1 2 3 4 5 6 7 8 9 10 11 12 13 14 15 16 17
000
FTUS43 KIND 290800 AAA
TAFBMG
TAF AMD
KBMG 290812Z 2908/3006 17012G20KT P6SM SCT050 BKN080
     FM291500 21012KT P6SM BKN025 BKN080
     FM291700 28016G24KT P6SM OVC015
     FM300300 31013KT P6SM OVC015
      AMD LTD TO CLD VIS AND WIND TIL 291400=

USA.gov is the U.S. government's official web portal to all federal, state and local government web resources and services.